sensor_id;sensor_type;location;lat;lon;timestamp;temperature;humidity
52321;DHT22;38261;54.090;13.382;2023-02-12T00:00:10;4.00;99.90
52321;DHT22;38261;54.090;13.382;2023-02-12T00:01:33;4.00;99.90
52321;DHT22;38261;54.090;13.382;2023-02-12T00:02:55;4.00;99.90
52321;DHT22;38261;54.090;13.382;2023-02-12T00:04:17;4.00;99.90
52321;DHT22;38261;54.090;13.382;2023-02-12T00:05:40;4.00;99.90
52321;DHT22;38261;54.090;13.382;2023-02-12T00:07:05;4.00;99.90
52321;DHT22;38261;54.090;13.382;2023-02-12T00:08:27;4.00;99.90
52321;DHT22;38261;54.090;13.382;2023-02-12T00:09:49;4.00;99.90
52321;DHT22;38261;54.090;13.382;2023-02-12T00:11:13;4.00;99.90
52321;DHT22;38261;54.090;13.382;2023-02-12T00:12:36;3.90;99.90
52321;DHT22;38261;54.090;13.382;2023-02-12T00:13:58;3.90;99.90
52321;DHT22;38261;54.090;13.382;2023-02-12T00:15:22;4.00;99.90
52321;DHT22;38261;54.090;13.382;2023-02-12T00:16:44;4.00;99.90
52321;DHT22;38261;54.090;13.382;2023-02-12T00:18:06;4.00;99.90
52321;DHT22;38261;54.090;13.382;2023-02-12T00:19:29;4.00;99.90
52321;DHT22;38261;54.090;13.382;2023-02-12T00:20:51;4.00;99.90
52321;DHT22;38261;54.090;13.382;2023-02-12T00:22:13;4.10;99.90
52321;DHT22;38261;54.090;13.382;2023-02-12T00:23:37;4.10;99.90
52321;DHT22;38261;54.090;13.382;2023-02-12T00:25:01;4.10;99.90
52321;DHT22;38261;54.090;13.382;2023-02-12T00:26:24;4.10;99.90
52321;DHT22;38261;54.090;13.382;2023-02-12T00:27:46;4.10;99.90
52321;DHT22;38261;54.090;13.382;2023-02-12T00:29:09;4.20;99.90
52321;DHT22;38261;54.090;13.382;2023-02-12T00:30:31;4.20;99.90
52321;DHT22;38261;54.090;13.382;2023-02-12T00:31:53;4.20;99.90
52321;DHT22;38261;54.090;13.382;2023-02-12T00:33:15;4.20;99.90
52321;DHT22;38261;54.090;13.382;2023-02-12T00:34:37;4.20;99.90
52321;DHT22;38261;54.090;13.382;2023-02-12T00:35:59;4.20;99.90
52321;DHT22;38261;54.090;13.382;2023-02-12T00:37:22;4.30;99.90
52321;DHT22;38261;54.090;13.382;2023-02-12T00:38:44;4.30;99.90
52321;DHT22;38261;54.090;13.382;2023-02-12T00:40:07;4.30;99.90
52321;DHT22;38261;54.090;13.382;2023-02-12T00:41:29;4.40;99.90
52321;DHT22;38261;54.090;13.382;2023-02-12T00:42:51;4.40;99.90
52321;DHT22;38261;54.090;13.382;2023-02-12T00:44:13;4.50;99.90
52321;DHT22;38261;54.090;13.382;2023-02-12T00:45:35;4.50;99.90
52321;DHT22;38261;54.090;13.382;2023-02-12T00:46:58;4.50;99.90
52321;DHT22;38261;54.090;13.382;2023-02-12T00:48:23;4.60;99.90
52321;DHT22;38261;54.090;13.382;2023-02-12T00:49:45;4.60;99.90
52321;DHT22;38261;54.090;13.382;2023-02-12T00:51:07;4.60;99.90
52321;DHT22;38261;54.090;13.382;2023-02-12T00:52:29;4.60;99.90
52321;DHT22;38261;54.090;13.382;2023-02-12T00:53:51;4.60;99.90
52321;DHT22;38261;54.090;13.382;2023-02-12T00:55:13;4.70;99.90
52321;DHT22;38261;54.090;13.382;2023-02-12T00:56:35;4.70;99.90
52321;DHT22;38261;54.090;13.382;2023-02-12T00:57:57;4.70;99.90
52321;DHT22;38261;54.090;13.382;2023-02-12T00:59:20;4.70;99.90
52321;DHT22;38261;54.090;13.382;2023-02-12T01:00:43;4.70;99.90
52321;DHT22;38261;54.090;13.382;2023-02-12T01:02:05;4.70;99.90
52321;DHT22;38261;54.090;13.382;2023-02-12T01:03:27;4.70;99.90
52321;DHT22;38261;54.090;13.382;2023-02-12T01:04:49;4.70;99.90
52321;DHT22;38261;54.090;13.382;2023-02-12T01:06:11;4.80;99.90
52321;DHT22;38261;54.090;13.382;2023-02-12T01:07:33;4.80;99.90
52321;DHT22;38261;54.090;13.382;2023-02-12T01:08:55;4.80;99.90
52321;DHT22;38261;54.090;13.382;2023-02-12T01:10:18;4.80;99.90
52321;DHT22;38261;54.090;13.382;2023-02-12T01:11:41;4.80;99.90
52321;DHT22;38261;54.090;13.382;2023-02-12T01:13:03;4.90;99.90
52321;DHT22;38261;54.090;13.382;2023-02-12T01:14:25;4.80;99.90
52321;DHT22;38261;54.090;13.382;2023-02-12T01:15:48;4.80;99.90
52321;DHT22;38261;54.090;13.382;2023-02-12T01:17:10;4.90;99.90
52321;DHT22;38261;54.090;13.382;2023-02-12T01:18:32;4.90;99.90
52321;DHT22;38261;54.090;13.382;2023-02-12T01:19:58;4.90;99.90
52321;DHT22;38261;54.090;13.382;2023-02-12T01:21:23;4.90;99.90
52321;DHT22;38261;54.090;13.382;2023-02-12T01:22:45;4.90;99.90
52321;DHT22;38261;54.090;13.382;2023-02-12T01:24:08;5.00;99.90
52321;DHT22;38261;54.090;13.382;2023-02-12T01:25:30;5.00;99.90
52321;DHT22;38261;54.090;13.382;2023-02-12T01:26:52;5.00;99.90
52321;DHT22;38261;54.090;13.382;2023-02-12T01:28:14;5.00;99.90
52321;DHT22;38261;54.090;13.382;2023-02-12T01:29:36;5.00;99.90
52321;DHT22;38261;54.090;13.382;2023-02-12T01:31:00;5.00;99.90
52321;DHT22;38261;54.090;13.382;2023-02-12T01:32:22;5.00;99.90
52321;DHT22;38261;54.090;13.382;2023-02-12T01:33:53;5.00;99.90
52321;DHT22;38261;54.090;13.382;2023-02-12T01:35:15;5.00;99.90
52321;DHT22;38261;54.090;13.382;2023-02-12T01:36:38;5.00;99.90
52321;DHT22;38261;54.090;13.382;2023-02-12T01:38:00;5.00;99.90
52321;DHT22;38261;54.090;13.382;2023-02-12T01:39:22;5.10;99.90
52321;DHT22;38261;54.090;13.382;2023-02-12T01:40:44;5.10;99.90
52321;DHT22;38261;54.090;13.382;2023-02-12T01:42:06;5.10;99.90
52321;DHT22;38261;54.090;13.382;2023-02-12T01:43:28;5.10;99.90
52321;DHT22;38261;54.090;13.382;2023-02-12T01:46:34;5.10;99.90
52321;DHT22;38261;54.090;13.382;2023-02-12T01:47:59;5.20;99.90
52321;DHT22;38261;54.090;13.382;2023-02-12T01:49:32;5.20;99.90
52321;DHT22;38261;54.090;13.382;2023-02-12T01:50:57;5.10;99.90
52321;DHT22;38261;54.090;13.382;2023-02-12T01:52:25;5.20;99.90
52321;DHT22;38261;54.090;13.382;2023-02-12T01:53:51;5.20;99.90
52321;DHT22;38261;54.090;13.382;2023-02-12T01:55:15;5.20;99.90
52321;DHT22;38261;54.090;13.382;2023-02-12T01:56:37;5.20;99.90
52321;DHT22;38261;54.090;13.382;2023-02-12T01:58:00;5.20;99.90
52321;DHT22;38261;54.090;13.382;2023-02-12T01:59:22;5.20;99.90
52321;DHT22;38261;54.090;13.382;2023-02-12T02:00:45;5.30;99.90
52321;DHT22;38261;54.090;13.382;2023-02-12T02:02:07;5.20;99.90
52321;DHT22;38261;54.090;13.382;2023-02-12T02:03:30;5.20;99.90
52321;DHT22;38261;54.090;13.382;2023-02-12T02:04:57;5.20;99.90
52321;DHT22;38261;54.090;13.382;2023-02-12T02:06:30;5.20;99.90
52321;DHT22;38261;54.090;13.382;2023-02-12T02:07:53;5.20;99.90
52321;DHT22;38261;54.090;13.382;2023-02-12T02:09:16;5.20;99.90
52321;DHT22;38261;54.090;13.382;2023-02-12T02:10:39;5.20;99.90
52321;DHT22;38261;54.090;13.382;2023-02-12T02:12:01;5.20;99.90
52321;DHT22;38261;54.090;13.382;2023-02-12T02:13:42;5.20;99.90
52321;DHT22;38261;54.090;13.382;2023-02-12T02:15:25;5.20;99.90
52321;DHT22;38261;54.090;13.382;2023-02-12T02:17:19;5.20;99.90
52321;DHT22;38261;54.090;13.382;2023-02-12T02:19:01;5.20;99.90
52321;DHT22;38261;54.090;13.382;2023-02-12T02:22:16;5.30;99.90
52321;DHT22;38261;54.090;13.382;2023-02-12T02:26:47;5.30;99.90
52321;DHT22;38261;54.090;13.382;2023-02-12T02:32:52;5.30;99.90
52321;DHT22;38261;54.090;13.382;2023-02-12T02:36:03;5.30;99.90
52321;DHT22;38261;54.090;13.382;2023-02-12T02:37:42;5.30;99.90
52321;DHT22;38261;54.090;13.382;2023-02-12T02:39:22;5.30;99.90
52321;DHT22;38261;54.090;13.382;2023-02-12T02:42:48;5.30;99.90
52321;DHT22;38261;54.090;13.382;2023-02-12T02:44:16;5.30;99.90
52321;DHT22;38261;54.090;13.382;2023-02-12T02:45:43;5.30;99.90
52321;DHT22;38261;54.090;13.382;2023-02-12T02:47:10;5.30;99.90
52321;DHT22;38261;54.090;13.382;2023-02-12T02:48:37;5.30;99.90
52321;DHT22;38261;54.090;13.382;2023-02-12T02:50:14;5.30;99.90
52321;DHT22;38261;54.090;13.382;2023-02-12T02:51:40;5.30;99.90
52321;DHT22;38261;54.090;13.382;2023-02-12T02:53:11;5.30;99.90
52321;DHT22;38261;54.090;13.382;2023-02-12T02:54:40;5.30;99.90
52321;DHT22;38261;54.090;13.382;2023-02-12T02:56:06;5.30;99.90
52321;DHT22;38261;54.090;13.382;2023-02-12T02:58:02;5.20;99.90
52321;DHT22;38261;54.090;13.382;2023-02-12T02:59:32;5.20;99.90
52321;DHT22;38261;54.090;13.382;2023-02-12T03:01:08;5.10;99.90
52321;DHT22;38261;54.090;13.382;2023-02-12T03:02:36;5.10;99.90
52321;DHT22;38261;54.090;13.382;2023-02-12T03:04:02;5.00;99.90
52321;DHT22;38261;54.090;13.382;2023-02-12T03:05:32;5.00;99.90
52321;DHT22;38261;54.090;13.382;2023-02-12T03:07:19;5.00;99.90
52321;DHT22;38261;54.090;13.382;2023-02-12T03:08:48;4.90;99.90
52321;DHT22;38261;54.090;13.382;2023-02-12T03:10:22;4.90;99.90
52321;DHT22;38261;54.090;13.382;2023-02-12T03:11:46;4.90;99.90
52321;DHT22;38261;54.090;13.382;2023-02-12T03:13:21;4.90;99.90
52321;DHT22;38261;54.090;13.382;2023-02-12T03:15:32;4.90;99.90
52321;DHT22;38261;54.090;13.382;2023-02-12T03:16:52;4.90;99.90
52321;DHT22;38261;54.090;13.382;2023-02-12T03:18:19;4.90;99.90
52321;DHT22;38261;54.090;13.382;2023-02-12T03:19:46;4.90;99.90
52321;DHT22;38261;54.090;13.382;2023-02-12T03:21:12;4.90;99.90
52321;DHT22;38261;54.090;13.382;2023-02-12T03:22:38;5.00;99.90
52321;DHT22;38261;54.090;13.382;2023-02-12T03:24:31;5.00;99.90
52321;DHT22;38261;54.090;13.382;2023-02-12T03:26:05;5.00;99.90
52321;DHT22;38261;54.090;13.382;2023-02-12T03:27:36;5.00;99.90
52321;DHT22;38261;54.090;13.382;2023-02-12T03:28:59;5.00;99.90
52321;DHT22;38261;54.090;13.382;2023-02-12T03:30:23;5.00;99.90
52321;DHT22;38261;54.090;13.382;2023-02-12T03:36:48;5.00;99.90
52321;DHT22;38261;54.090;13.382;2023-02-12T03:38:16;5.10;99.90
52321;DHT22;38261;54.090;13.382;2023-02-12T03:41:31;5.10;99.90
52321;DHT22;38261;54.090;13.382;2023-02-12T03:43:24;5.10;99.90
52321;DHT22;38261;54.090;13.382;2023-02-12T03:45:02;5.20;99.90
52321;DHT22;38261;54.090;13.382;2023-02-12T03:46:45;5.20;99.90
52321;DHT22;38261;54.090;13.382;2023-02-12T03:48:31;5.30;99.90
52321;DHT22;38261;54.090;13.382;2023-02-12T03:51:39;5.30;99.90
52321;DHT22;38261;54.090;13.382;2023-02-12T03:53:02;5.30;99.90
52321;DHT22;38261;54.090;13.382;2023-02-12T03:54:25;5.30;99.90
52321;DHT22;38261;54.090;13.382;2023-02-12T03:55:52;5.40;99.90
52321;DHT22;38261;54.090;13.382;2023-02-12T03:57:19;5.40;99.90
52321;DHT22;38261;54.090;13.382;2023-02-12T03:58:43;5.40;99.90
52321;DHT22;38261;54.090;13.382;2023-02-12T04:00:16;5.50;99.90
52321;DHT22;38261;54.090;13.382;2023-02-12T04:01:38;5.50;99.90
52321;DHT22;38261;54.090;13.382;2023-02-12T04:03:01;5.50;99.90
52321;DHT22;38261;54.090;13.382;2023-02-12T04:04:23;5.50;99.90
52321;DHT22;38261;54.090;13.382;2023-02-12T04:05:46;5.60;99.90
52321;DHT22;38261;54.090;13.382;2023-02-12T04:07:09;5.60;99.90
52321;DHT22;38261;54.090;13.382;2023-02-12T04:08:32;5.60;99.90
52321;DHT22;38261;54.090;13.382;2023-02-12T04:09:54;5.60;99.90
52321;DHT22;38261;54.090;13.382;2023-02-12T04:11:30;5.60;99.90
52321;DHT22;38261;54.090;13.382;2023-02-12T04:13:17;5.60;99.90
52321;DHT22;38261;54.090;13.382;2023-02-12T04:14:45;5.60;99.90
52321;DHT22;38261;54.090;13.382;2023-02-12T04:16:35;5.50;99.90
52321;DHT22;38261;54.090;13.382;2023-02-12T04:18:12;5.50;99.90
52321;DHT22;38261;54.090;13.382;2023-02-12T04:19:58;5.60;99.90
52321;DHT22;38261;54.090;13.382;2023-02-12T04:32:54;5.60;99.90
52321;DHT22;38261;54.090;13.382;2023-02-12T04:34:34;5.60;99.90
52321;DHT22;38261;54.090;13.382;2023-02-12T04:37:30;5.60;99.90
52321;DHT22;38261;54.090;13.382;2023-02-12T04:39:00;5.60;99.90
52321;DHT22;38261;54.090;13.382;2023-02-12T04:40:24;5.60;99.90
52321;DHT22;38261;54.090;13.382;2023-02-12T04:41:47;5.60;99.90
52321;DHT22;38261;54.090;13.382;2023-02-12T04:43:10;5.70;99.90
52321;DHT22;38261;54.090;13.382;2023-02-12T04:44:36;5.60;99.90
52321;DHT22;38261;54.090;13.382;2023-02-12T04:45:58;5.70;99.90
52321;DHT22;38261;54.090;13.382;2023-02-12T04:47:20;5.70;99.90
52321;DHT22;38261;54.090;13.382;2023-02-12T04:48:55;5.70;99.90
52321;DHT22;38261;54.090;13.382;2023-02-12T04:50:19;5.70;99.90
52321;DHT22;38261;54.090;13.382;2023-02-12T04:51:41;5.70;99.90
52321;DHT22;38261;54.090;13.382;2023-02-12T04:53:04;5.70;99.90
52321;DHT22;38261;54.090;13.382;2023-02-12T04:54:26;5.80;99.90
52321;DHT22;38261;54.090;13.382;2023-02-12T04:55:48;5.80;99.90
52321;DHT22;38261;54.090;13.382;2023-02-12T04:57:11;5.80;99.90
52321;DHT22;38261;54.090;13.382;2023-02-12T04:58:33;5.80;99.90
52321;DHT22;38261;54.090;13.382;2023-02-12T04:59:56;5.80;99.90
52321;DHT22;38261;54.090;13.382;2023-02-12T05:01:18;5.80;99.90
52321;DHT22;38261;54.090;13.382;2023-02-12T05:02:40;5.80;99.90
52321;DHT22;38261;54.090;13.382;2023-02-12T05:04:03;5.80;99.90
52321;DHT22;38261;54.090;13.382;2023-02-12T05:05:26;5.80;99.90
52321;DHT22;38261;54.090;13.382;2023-02-12T05:06:48;5.80;99.90
52321;DHT22;38261;54.090;13.382;2023-02-12T05:08:11;5.90;99.90
52321;DHT22;38261;54.090;13.382;2023-02-12T05:09:33;5.90;99.90
52321;DHT22;38261;54.090;13.382;2023-02-12T05:10:55;5.90;99.90
52321;DHT22;38261;54.090;13.382;2023-02-12T05:12:17;5.90;99.90
52321;DHT22;38261;54.090;13.382;2023-02-12T05:13:43;5.90;99.90
52321;DHT22;38261;54.090;13.382;2023-02-12T05:15:05;5.90;99.90
52321;DHT22;38261;54.090;13.382;2023-02-12T05:16:28;5.90;99.90
52321;DHT22;38261;54.090;13.382;2023-02-12T05:17:50;6.00;99.90
52321;DHT22;38261;54.090;13.382;2023-02-12T05:19:12;6.00;99.90
52321;DHT22;38261;54.090;13.382;2023-02-12T05:20:35;6.00;99.90
52321;DHT22;38261;54.090;13.382;2023-02-12T05:21:57;6.00;99.90
52321;DHT22;38261;54.090;13.382;2023-02-12T05:23:19;6.00;99.90
52321;DHT22;38261;54.090;13.382;2023-02-12T05:24:41;6.00;99.90
52321;DHT22;38261;54.090;13.382;2023-02-12T05:26:06;6.00;99.90
52321;DHT22;38261;54.090;13.382;2023-02-12T05:27:29;6.10;99.90
52321;DHT22;38261;54.090;13.382;2023-02-12T05:28:52;6.10;99.90
52321;DHT22;38261;54.090;13.382;2023-02-12T05:30:14;6.10;99.90
52321;DHT22;38261;54.090;13.382;2023-02-12T05:31:36;6.10;99.90
52321;DHT22;38261;54.090;13.382;2023-02-12T05:32:59;6.10;99.90
52321;DHT22;38261;54.090;13.382;2023-02-12T05:34:21;6.10;99.90
52321;DHT22;38261;54.090;13.382;2023-02-12T05:35:43;6.10;99.90
52321;DHT22;38261;54.090;13.382;2023-02-12T05:37:05;6.20;99.90
52321;DHT22;38261;54.090;13.382;2023-02-12T05:38:28;6.10;99.90
52321;DHT22;38261;54.090;13.382;2023-02-12T05:39:50;6.10;99.90
52321;DHT22;38261;54.090;13.382;2023-02-12T05:41:16;6.20;99.90
52321;DHT22;38261;54.090;13.382;2023-02-12T05:42:38;6.20;99.90
52321;DHT22;38261;54.090;13.382;2023-02-12T05:44:04;6.20;99.90
52321;DHT22;38261;54.090;13.382;2023-02-12T05:45:27;6.20;99.90
52321;DHT22;38261;54.090;13.382;2023-02-12T05:46:50;6.20;99.90
52321;DHT22;38261;54.090;13.382;2023-02-12T05:48:12;6.20;99.90
52321;DHT22;38261;54.090;13.382;2023-02-12T05:49:34;6.20;99.90
52321;DHT22;38261;54.090;13.382;2023-02-12T05:51:08;6.20;99.90
52321;DHT22;38261;54.090;13.382;2023-02-12T05:52:30;6.30;99.90
52321;DHT22;38261;54.090;13.382;2023-02-12T05:53:57;6.30;99.90
52321;DHT22;38261;54.090;13.382;2023-02-12T05:55:20;6.30;99.90
52321;DHT22;38261;54.090;13.382;2023-02-12T05:56:45;6.30;99.90
52321;DHT22;38261;54.090;13.382;2023-02-12T05:58:07;6.30;99.90
52321;DHT22;38261;54.090;13.382;2023-02-12T05:59:29;6.30;99.90
52321;DHT22;38261;54.090;13.382;2023-02-12T06:00:51;6.30;99.90
52321;DHT22;38261;54.090;13.382;2023-02-12T06:02:14;6.30;99.90
52321;DHT22;38261;54.090;13.382;2023-02-12T06:03:36;6.40;99.90
52321;DHT22;38261;54.090;13.382;2023-02-12T06:04:59;6.40;99.90
52321;DHT22;38261;54.090;13.382;2023-02-12T06:06:21;6.40;99.90
52321;DHT22;38261;54.090;13.382;2023-02-12T06:07:43;6.40;99.90
52321;DHT22;38261;54.090;13.382;2023-02-12T06:09:05;6.40;99.90
52321;DHT22;38261;54.090;13.382;2023-02-12T06:10:27;6.40;99.90
52321;DHT22;38261;54.090;13.382;2023-02-12T06:11:50;6.30;99.90
52321;DHT22;38261;54.090;13.382;2023-02-12T06:13:12;6.30;99.90
52321;DHT22;38261;54.090;13.382;2023-02-12T06:14:34;6.30;99.90
52321;DHT22;38261;54.090;13.382;2023-02-12T06:15:57;6.30;99.90
52321;DHT22;38261;54.090;13.382;2023-02-12T06:17:20;6.30;99.90
52321;DHT22;38261;54.090;13.382;2023-02-12T06:18:42;6.30;99.90
52321;DHT22;38261;54.090;13.382;2023-02-12T06:20:04;6.30;99.90
52321;DHT22;38261;54.090;13.382;2023-02-12T06:21:27;6.30;99.90
52321;DHT22;38261;54.090;13.382;2023-02-12T06:22:50;6.30;99.90
52321;DHT22;38261;54.090;13.382;2023-02-12T06:24:13;6.30;99.90
52321;DHT22;38261;54.090;13.382;2023-02-12T06:25:35;6.30;99.90
52321;DHT22;38261;54.090;13.382;2023-02-12T06:26:58;6.30;99.90
52321;DHT22;38261;54.090;13.382;2023-02-12T06:28:21;6.30;99.90
52321;DHT22;38261;54.090;13.382;2023-02-12T06:29:43;6.30;99.90
52321;DHT22;38261;54.090;13.382;2023-02-12T06:31:18;6.30;99.90
52321;DHT22;38261;54.090;13.382;2023-02-12T06:32:41;6.20;99.90
52321;DHT22;38261;54.090;13.382;2023-02-12T06:34:05;6.20;99.90
52321;DHT22;38261;54.090;13.382;2023-02-12T06:35:27;6.20;99.90
52321;DHT22;38261;54.090;13.382;2023-02-12T06:36:50;6.20;99.90
52321;DHT22;38261;54.090;13.382;2023-02-12T06:38:12;6.20;99.90
52321;DHT22;38261;54.090;13.382;2023-02-12T06:39:34;6.10;99.90
52321;DHT22;38261;54.090;13.382;2023-02-12T06:41:00;6.20;99.90
52321;DHT22;38261;54.090;13.382;2023-02-12T06:42:23;6.20;99.90
52321;DHT22;38261;54.090;13.382;2023-02-12T06:43:45;6.10;99.90
52321;DHT22;38261;54.090;13.382;2023-02-12T06:45:07;6.10;99.90
52321;DHT22;38261;54.090;13.382;2023-02-12T06:46:30;6.10;99.90
52321;DHT22;38261;54.090;13.382;2023-02-12T06:47:53;6.10;99.90
52321;DHT22;38261;54.090;13.382;2023-02-12T06:49:15;6.10;99.90
52321;DHT22;38261;54.090;13.382;2023-02-12T06:50:38;6.10;99.90
52321;DHT22;38261;54.090;13.382;2023-02-12T06:52:03;6.10;99.90
52321;DHT22;38261;54.090;13.382;2023-02-12T06:53:25;6.10;99.90
52321;DHT22;38261;54.090;13.382;2023-02-12T06:54:48;6.10;99.90
52321;DHT22;38261;54.090;13.382;2023-02-12T06:56:11;6.10;99.90
52321;DHT22;38261;54.090;13.382;2023-02-12T06:57:34;6.10;99.90
52321;DHT22;38261;54.090;13.382;2023-02-12T06:58:57;6.10;99.90
52321;DHT22;38261;54.090;13.382;2023-02-12T07:00:22;6.10;99.90
52321;DHT22;38261;54.090;13.382;2023-02-12T07:01:44;6.10;99.90
52321;DHT22;38261;54.090;13.382;2023-02-12T07:03:07;6.00;99.90
52321;DHT22;38261;54.090;13.382;2023-02-12T07:04:29;6.00;99.90
52321;DHT22;38261;54.090;13.382;2023-02-12T07:05:51;6.00;99.90
52321;DHT22;38261;54.090;13.382;2023-02-12T07:07:14;6.00;99.90
52321;DHT22;38261;54.090;13.382;2023-02-12T07:08:36;6.00;99.90
52321;DHT22;38261;54.090;13.382;2023-02-12T07:09:58;6.00;99.90
52321;DHT22;38261;54.090;13.382;2023-02-12T07:11:27;6.00;99.90
52321;DHT22;38261;54.090;13.382;2023-02-12T07:12:50;6.00;99.90
52321;DHT22;38261;54.090;13.382;2023-02-12T07:14:13;6.00;99.90
52321;DHT22;38261;54.090;13.382;2023-02-12T07:15:38;6.00;99.90
52321;DHT22;38261;54.090;13.382;2023-02-12T07:17:01;6.00;99.90
52321;DHT22;38261;54.090;13.382;2023-02-12T07:18:26;6.10;99.90
52321;DHT22;38261;54.090;13.382;2023-02-12T07:19:48;6.10;99.90
52321;DHT22;38261;54.090;13.382;2023-02-12T07:21:12;6.10;99.90
52321;DHT22;38261;54.090;13.382;2023-02-12T07:22:35;6.10;99.90
52321;DHT22;38261;54.090;13.382;2023-02-12T07:23:57;6.10;99.90
52321;DHT22;38261;54.090;13.382;2023-02-12T07:25:20;6.10;99.90
52321;DHT22;38261;54.090;13.382;2023-02-12T07:26:42;6.10;99.90
52321;DHT22;38261;54.090;13.382;2023-02-12T07:28:04;6.20;99.90
52321;DHT22;38261;54.090;13.382;2023-02-12T07:29:26;6.20;99.90
52321;DHT22;38261;54.090;13.382;2023-02-12T07:30:49;6.20;99.90
52321;DHT22;38261;54.090;13.382;2023-02-12T07:32:11;6.20;99.90
52321;DHT22;38261;54.090;13.382;2023-02-12T07:33:34;6.20;99.90
52321;DHT22;38261;54.090;13.382;2023-02-12T07:34:56;6.30;99.90
52321;DHT22;38261;54.090;13.382;2023-02-12T07:36:19;6.30;99.90
52321;DHT22;38261;54.090;13.382;2023-02-12T07:37:41;6.30;99.90
52321;DHT22;38261;54.090;13.382;2023-02-12T07:39:03;6.40;99.90
52321;DHT22;38261;54.090;13.382;2023-02-12T07:40:26;6.40;99.90
52321;DHT22;38261;54.090;13.382;2023-02-12T07:41:48;6.50;99.90
52321;DHT22;38261;54.090;13.382;2023-02-12T07:43:10;6.50;99.90
52321;DHT22;38261;54.090;13.382;2023-02-12T07:44:32;6.60;99.90
52321;DHT22;38261;54.090;13.382;2023-02-12T07:45:55;6.60;99.90
52321;DHT22;38261;54.090;13.382;2023-02-12T07:47:17;6.70;99.90
52321;DHT22;38261;54.090;13.382;2023-02-12T07:48:39;6.70;99.90
52321;DHT22;38261;54.090;13.382;2023-02-12T07:50:01;6.70;99.90
52321;DHT22;38261;54.090;13.382;2023-02-12T07:51:24;6.70;99.90
52321;DHT22;38261;54.090;13.382;2023-02-12T07:52:51;6.80;99.90
52321;DHT22;38261;54.090;13.382;2023-02-12T07:54:13;6.80;99.90
52321;DHT22;38261;54.090;13.382;2023-02-12T07:55:35;6.80;99.90
52321;DHT22;38261;54.090;13.382;2023-02-12T07:56:57;6.80;99.90
52321;DHT22;38261;54.090;13.382;2023-02-12T07:58:21;6.80;99.90
52321;DHT22;38261;54.090;13.382;2023-02-12T07:59:44;6.90;99.90
52321;DHT22;38261;54.090;13.382;2023-02-12T08:01:26;6.90;99.90
52321;DHT22;38261;54.090;13.382;2023-02-12T08:02:52;7.00;99.90
52321;DHT22;38261;54.090;13.382;2023-02-12T08:04:17;7.00;99.90
52321;DHT22;38261;54.090;13.382;2023-02-12T08:05:40;7.10;99.90
52321;DHT22;38261;54.090;13.382;2023-02-12T08:07:02;7.20;99.90
52321;DHT22;38261;54.090;13.382;2023-02-12T08:08:24;7.20;99.90
52321;DHT22;38261;54.090;13.382;2023-02-12T08:09:46;7.30;99.90
52321;DHT22;38261;54.090;13.382;2023-02-12T08:11:09;7.30;99.90
52321;DHT22;38261;54.090;13.382;2023-02-12T08:12:31;7.30;99.90
52321;DHT22;38261;54.090;13.382;2023-02-12T08:13:53;7.30;99.90
52321;DHT22;38261;54.090;13.382;2023-02-12T08:15:16;7.30;99.90
52321;DHT22;38261;54.090;13.382;2023-02-12T08:16:39;7.30;99.90
52321;DHT22;38261;54.090;13.382;2023-02-12T08:18:01;7.30;99.90
52321;DHT22;38261;54.090;13.382;2023-02-12T08:19:23;7.30;99.90
52321;DHT22;38261;54.090;13.382;2023-02-12T08:20:47;7.30;99.90
52321;DHT22;38261;54.090;13.382;2023-02-12T08:22:09;7.30;99.90
52321;DHT22;38261;54.090;13.382;2023-02-12T08:23:32;7.30;99.90
52321;DHT22;38261;54.090;13.382;2023-02-12T08:24:54;7.20;99.90
52321;DHT22;38261;54.090;13.382;2023-02-12T08:26:17;7.20;99.90
52321;DHT22;38261;54.090;13.382;2023-02-12T08:27:40;7.20;99.90
52321;DHT22;38261;54.090;13.382;2023-02-12T08:29:08;7.20;99.90
52321;DHT22;38261;54.090;13.382;2023-02-12T08:30:31;7.30;99.90
52321;DHT22;38261;54.090;13.382;2023-02-12T08:31:58;7.30;99.90
52321;DHT22;38261;54.090;13.382;2023-02-12T08:33:21;7.30;99.90
52321;DHT22;38261;54.090;13.382;2023-02-12T08:34:43;7.30;99.90
52321;DHT22;38261;54.090;13.382;2023-02-12T08:36:10;7.30;99.90
52321;DHT22;38261;54.090;13.382;2023-02-12T08:37:33;7.40;99.90
52321;DHT22;38261;54.090;13.382;2023-02-12T08:38:58;7.40;99.90
52321;DHT22;38261;54.090;13.382;2023-02-12T08:40:20;7.40;99.90
52321;DHT22;38261;54.090;13.382;2023-02-12T08:41:42;7.50;99.90
52321;DHT22;38261;54.090;13.382;2023-02-12T08:43:04;7.50;99.90
52321;DHT22;38261;54.090;13.382;2023-02-12T08:44:26;7.60;99.90
52321;DHT22;38261;54.090;13.382;2023-02-12T08:45:48;7.60;99.90
52321;DHT22;38261;54.090;13.382;2023-02-12T08:47:11;7.60;99.90
52321;DHT22;38261;54.090;13.382;2023-02-12T08:48:33;7.70;99.90
52321;DHT22;38261;54.090;13.382;2023-02-12T08:49:55;7.70;99.90
52321;DHT22;38261;54.090;13.382;2023-02-12T08:51:20;7.80;99.90
52321;DHT22;38261;54.090;13.382;2023-02-12T08:52:43;7.90;99.90
52321;DHT22;38261;54.090;13.382;2023-02-12T08:54:07;7.90;99.90
52321;DHT22;38261;54.090;13.382;2023-02-12T08:55:30;8.00;99.90
52321;DHT22;38261;54.090;13.382;2023-02-12T08:56:57;8.00;99.90
52321;DHT22;38261;54.090;13.382;2023-02-12T08:58:20;8.00;99.90
52321;DHT22;38261;54.090;13.382;2023-02-12T08:59:42;8.10;99.90
52321;DHT22;38261;54.090;13.382;2023-02-12T09:01:08;8.00;99.90
52321;DHT22;38261;54.090;13.382;2023-02-12T09:02:30;8.00;99.90
52321;DHT22;38261;54.090;13.382;2023-02-12T09:03:54;8.00;99.90
52321;DHT22;38261;54.090;13.382;2023-02-12T09:05:16;8.00;99.90
52321;DHT22;38261;54.090;13.382;2023-02-12T09:06:38;8.00;99.90
52321;DHT22;38261;54.090;13.382;2023-02-12T09:08:00;8.00;99.90
52321;DHT22;38261;54.090;13.382;2023-02-12T09:09:23;7.90;99.90
52321;DHT22;38261;54.090;13.382;2023-02-12T09:10:45;7.90;99.90
52321;DHT22;38261;54.090;13.382;2023-02-12T09:12:08;7.90;99.90
52321;DHT22;38261;54.090;13.382;2023-02-12T09:13:30;7.80;99.90
52321;DHT22;38261;54.090;13.382;2023-02-12T09:14:52;7.80;99.90
52321;DHT22;38261;54.090;13.382;2023-02-12T09:16:14;7.70;99.90
52321;DHT22;38261;54.090;13.382;2023-02-12T09:17:36;7.70;99.90
52321;DHT22;38261;54.090;13.382;2023-02-12T09:18:58;7.70;99.90
52321;DHT22;38261;54.090;13.382;2023-02-12T09:20:21;7.70;99.90
52321;DHT22;38261;54.090;13.382;2023-02-12T09:21:43;7.60;99.90
52321;DHT22;38261;54.090;13.382;2023-02-12T09:23:06;7.60;99.90
52321;DHT22;38261;54.090;13.382;2023-02-12T09:24:28;7.60;99.90
52321;DHT22;38261;54.090;13.382;2023-02-12T09:25:50;7.60;99.90
52321;DHT22;38261;54.090;13.382;2023-02-12T09:27:12;7.60;99.90
52321;DHT22;38261;54.090;13.382;2023-02-12T09:28:35;7.70;99.90
52321;DHT22;38261;54.090;13.382;2023-02-12T09:29:57;7.70;99.90
52321;DHT22;38261;54.090;13.382;2023-02-12T09:31:27;7.80;99.90